Time;durP1;ratioP1;P1;durP2;ratioP2;P2;SDS_P1;SDS_P2;PMS_P1;PMS_P2;Temp;Humidity;BMP_temperature;BMP_pressure;BME280_temperature;BME280_humidity;BME280_pressure;Samples;Min_cycle;Max_cycle;Signal;HPM_P1;HPM_P2
2023/09/22 00:00:14;;;;;;;;;;;21.70;99.90;;;;;;4938987;29;19991;-65
2023/09/22 00:02:40;;;;;;;;;;;21.70;99.90;;;;;;4939159;29;20355;-64
2023/09/22 00:05:11;;;;;;;;;;;21.60;99.90;;;;;;4939086;29;19988;-66
2023/09/22 00:07:37;;;;;;;;;;;21.60;99.90;;;;;;4938703;29;20090;-63
2023/09/22 00:10:04;;;;;;;;;;;21.50;99.90;;;;;;4938960;29;20019;-63
2023/09/22 00:12:31;;;;;;;;;;;21.50;99.90;;;;;;4938399;29;20026;-63
2023/09/22 00:15:00;;;;;;;;;;;21.40;99.90;;;;;;4938615;29;20039;-66
2023/09/22 00:17:26;;;;;;;;;;;21.40;99.90;;;;;;4938770;29;20018;-65
2023/09/22 00:19:52;;;;;;;;;;;21.30;99.90;;;;;;4938637;29;19984;-67
2023/09/22 00:22:17;;;;;;;;;;;21.30;99.90;;;;;;4938432;29;19994;-67
2023/09/22 00:24:43;;;;;;;;;;;21.30;99.90;;;;;;4938464;29;19987;-63
2023/09/22 00:27:09;;;;;;;;;;;21.20;99.90;;;;;;4938276;29;20016;-67
2023/09/22 00:29:35;;;;;;;;;;;21.20;99.90;;;;;;4938315;29;19988;-64
2023/09/22 00:32:01;;;;;;;;;;;21.10;99.90;;;;;;4938545;29;19988;-64
2023/09/22 00:34:27;;;;;;;;;;;21.10;99.90;;;;;;4938291;29;19999;-66
2023/09/22 00:36:55;;;;;;;;;;;21.10;99.90;;;;;;4938274;29;20019;-62
2023/09/22 00:39:20;;;;;;;;;;;21.00;99.90;;;;;;4938527;29;20369;-66
2023/09/22 00:41:46;;;;;;;;;;;21.10;99.90;;;;;;4937976;29;19983;-67
2023/09/22 00:44:11;;;;;;;;;;;21.00;99.90;;;;;;4938142;29;20456;-68
2023/09/22 00:46:37;;;;;;;;;;;21.10;99.90;;;;;;4938206;29;19984;-64
2023/09/22 00:49:03;;;;;;;;;;;21.10;99.90;;;;;;4938175;29;20052;-64
2023/09/22 00:51:28;;;;;;;;;;;21.20;99.90;;;;;;4937931;29;20035;-66
2023/09/22 00:53:55;;;;;;;;;;;21.10;99.90;;;;;;4937871;29;20040;-67
2023/09/22 00:56:22;;;;;;;;;;;21.10;99.90;;;;;;4937945;29;20018;-64
2023/09/22 00:58:49;;;;;;;;;;;21.10;99.90;;;;;;4937907;29;19984;-66
2023/09/22 01:01:15;;;;;;;;;;;21.10;99.90;;;;;;4937707;29;19988;-63
2023/09/22 01:03:41;;;;;;;;;;;21.10;99.90;;;;;;4937866;29;19984;-64
2023/09/22 01:06:09;;;;;;;;;;;21.10;99.90;;;;;;4938035;29;19995;-66
2023/09/22 01:08:34;;;;;;;;;;;21.00;99.90;;;;;;4937684;29;20402;-67
2023/09/22 01:11:02;;;;;;;;;;;20.90;99.90;;;;;;4937535;29;19988;-63
2023/09/22 01:13:27;;;;;;;;;;;20.80;99.90;;;;;;4937454;29;20501;-63
2023/09/22 01:15:53;;;;;;;;;;;20.80;99.90;;;;;;4937435;29;19984;-64
2023/09/22 01:18:19;;;;;;;;;;;20.80;99.90;;;;;;4937778;29;19999;-66
2023/09/22 01:20:45;;;;;;;;;;;20.70;99.90;;;;;;4937409;29;20350;-66
2023/09/22 01:23:14;;;;;;;;;;;20.70;99.90;;;;;;4936642;29;19983;-65
2023/09/22 01:25:40;;;;;;;;;;;20.70;99.90;;;;;;4937335;29;19992;-66
2023/09/22 01:28:06;;;;;;;;;;;20.70;99.90;;;;;;4937586;29;20365;-64
2023/09/22 01:30:33;;;;;;;;;;;20.60;99.90;;;;;;4937196;29;20327;-66
2023/09/22 01:33:02;;;;;;;;;;;20.60;99.90;;;;;;4937378;29;20095;-61
2023/09/22 01:35:31;;;;;;;;;;;20.60;99.90;;;;;;4937456;29;20010;-64
2023/09/22 01:38:00;;;;;;;;;;;20.60;99.90;;;;;;4936892;29;20522;-65
2023/09/22 01:40:26;;;;;;;;;;;20.60;99.90;;;;;;4920039;29;20373;-67
2023/09/22 01:42:53;;;;;;;;;;;20.60;99.90;;;;;;4937117;29;19984;-61
2023/09/22 01:45:19;;;;;;;;;;;20.60;99.90;;;;;;4937195;29;20406;-66
2023/09/22 01:47:44;;;;;;;;;;;20.60;99.90;;;;;;4937107;29;19983;-67
2023/09/22 01:50:10;;;;;;;;;;;20.60;99.90;;;;;;4936937;29;20455;-63
2023/09/22 01:52:37;;;;;;;;;;;20.50;99.90;;;;;;4936628;29;20435;-67
2023/09/22 01:55:04;;;;;;;;;;;20.50;99.90;;;;;;4936918;29;20133;-67
2023/09/22 01:57:30;;;;;;;;;;;20.50;99.90;;;;;;4936796;29;20054;-66
2023/09/22 01:59:55;;;;;;;;;;;20.50;99.90;;;;;;4937014;29;20079;-64
2023/09/22 02:02:21;;;;;;;;;;;20.50;99.90;;;;;;4937022;29;20480;-64
2023/09/22 02:04:47;;;;;;;;;;;20.50;99.90;;;;;;4936982;29;20419;-67
2023/09/22 02:07:12;;;;;;;;;;;20.50;99.90;;;;;;4936545;29;19988;-66
2023/09/22 02:09:38;;;;;;;;;;;20.50;99.90;;;;;;4936520;29;19987;-67
2023/09/22 02:12:04;;;;;;;;;;;20.50;99.90;;;;;;4936579;29;20027;-61
2023/09/22 02:14:30;;;;;;;;;;;20.40;99.90;;;;;;4936652;29;19995;-66
2023/09/22 02:16:55;;;;;;;;;;;20.40;99.90;;;;;;4936421;29;20011;-68
2023/09/22 02:19:21;;;;;;;;;;;20.40;99.90;;;;;;4936572;29;20024;-67
2023/09/22 02:21:47;;;;;;;;;;;20.40;99.90;;;;;;4936377;29;19984;-66
2023/09/22 02:24:12;;;;;;;;;;;20.30;99.90;;;;;;4936472;29;19984;-67
2023/09/22 02:26:38;;;;;;;;;;;20.30;99.90;;;;;;4936486;29;20420;-65
2023/09/22 02:29:03;;;;;;;;;;;20.30;99.90;;;;;;4936502;29;20007;-63
2023/09/22 02:31:29;;;;;;;;;;;20.20;99.90;;;;;;4936443;29;20083;-65
2023/09/22 02:33:54;;;;;;;;;;;20.20;99.90;;;;;;4935387;29;19999;-64
2023/09/22 02:36:20;;;;;;;;;;;20.10;99.90;;;;;;4936387;29;20012;-65
2023/09/22 02:38:45;;;;;;;;;;;20.10;99.90;;;;;;4936594;29;19988;-65
2023/09/22 02:41:11;;;;;;;;;;;20.00;99.90;;;;;;4936282;29;19984;-65
2023/09/22 02:43:38;;;;;;;;;;;20.00;99.90;;;;;;4936314;29;19996;-63
2023/09/22 02:46:03;;;;;;;;;;;20.00;99.90;;;;;;4936190;29;19995;-66
2023/09/22 02:48:29;;;;;;;;;;;20.00;99.90;;;;;;4936191;29;19988;-64
2023/09/22 02:50:55;;;;;;;;;;;20.00;99.90;;;;;;4936084;29;19988;-62
2023/09/22 02:53:20;;;;;;;;;;;19.90;99.90;;;;;;4936122;29;19994;-67
2023/09/22 02:55:46;;;;;;;;;;;19.90;99.90;;;;;;4936419;29;19991;-68
2023/09/22 02:58:12;;;;;;;;;;;19.90;99.90;;;;;;4936154;29;20008;-63
2023/09/22 03:00:43;;;;;;;;;;;19.90;99.90;;;;;;4936200;29;20358;-62
2023/09/22 03:03:10;;;;;;;;;;;19.90;99.90;;;;;;4936121;29;19984;-68
2023/09/22 03:05:36;;;;;;;;;;;19.90;99.90;;;;;;4936084;29;19984;-67
2023/09/22 03:08:04;;;;;;;;;;;19.80;99.90;;;;;;4936203;29;20150;-66
2023/09/22 03:10:33;;;;;;;;;;;19.80;99.90;;;;;;4936113;29;20038;-66
2023/09/22 03:12:58;;;;;;;;;;;19.80;99.90;;;;;;4935878;29;20019;-67
2023/09/22 03:15:24;;;;;;;;;;;19.80;99.90;;;;;;4936082;29;20378;-63
2023/09/22 03:17:50;;;;;;;;;;;19.80;99.90;;;;;;4935856;29;20015;-63
2023/09/22 03:20:17;;;;;;;;;;;19.80;99.90;;;;;;4935810;29;20098;-64
2023/09/22 03:22:43;;;;;;;;;;;19.80;99.90;;;;;;4936054;29;20451;-66
2023/09/22 03:25:10;;;;;;;;;;;19.80;99.90;;;;;;4935818;29;19992;-62
2023/09/22 03:27:35;;;;;;;;;;;19.70;99.90;;;;;;4935813;29;19991;-67
2023/09/22 03:30:01;;;;;;;;;;;19.70;99.90;;;;;;4936178;29;20095;-68
2023/09/22 03:32:27;;;;;;;;;;;19.70;99.90;;;;;;4936178;29;19984;-65
2023/09/22 03:34:54;;;;;;;;;;;19.70;99.90;;;;;;4935578;29;20623;-65
2023/09/22 03:37:20;;;;;;;;;;;19.70;99.90;;;;;;4935717;29;20058;-67
2023/09/22 03:39:45;;;;;;;;;;;19.60;99.90;;;;;;4935718;29;19995;-66
2023/09/22 03:42:13;;;;;;;;;;;19.60;99.90;;;;;;4935729;29;20039;-66
2023/09/22 03:44:39;;;;;;;;;;;19.60;99.90;;;;;;4936245;29;19988;-63
2023/09/22 03:47:05;;;;;;;;;;;19.60;99.90;;;;;;4939232;29;19984;-65
2023/09/22 03:49:31;;;;;;;;;;;19.60;99.90;;;;;;4939169;29;20358;-67
2023/09/22 03:51:56;;;;;;;;;;;19.60;99.90;;;;;;4939119;29;19984;-66
2023/09/22 03:54:22;;;;;;;;;;;19.60;99.90;;;;;;4939096;29;19984;-67
2023/09/22 03:56:48;;;;;;;;;;;19.60;99.90;;;;;;4938922;29;20545;-63
2023/09/22 03:59:13;;;;;;;;;;;19.50;99.90;;;;;;4939228;29;20075;-64
2023/09/22 04:01:39;;;;;;;;;;;19.50;99.90;;;;;;4939014;29;20465;-65
2023/09/22 04:04:05;;;;;;;;;;;19.50;99.90;;;;;;4938712;29;20351;-64
2023/09/22 04:06:31;;;;;;;;;;;19.40;99.90;;;;;;4938791;29;20338;-65
2023/09/22 04:08:56;;;;;;;;;;;19.40;99.90;;;;;;4938856;29;19983;-65
2023/09/22 04:11:22;;;;;;;;;;;19.40;99.90;;;;;;4939034;29;19994;-63
2023/09/22 04:13:48;;;;;;;;;;;19.40;99.90;;;;;;4938376;29;20487;-66
2023/09/22 04:16:14;;;;;;;;;;;19.40;99.90;;;;;;4938628;29;20429;-64
2023/09/22 04:18:39;;;;;;;;;;;19.30;99.90;;;;;;4938696;29;20431;-64
2023/09/22 04:21:07;;;;;;;;;;;19.30;99.90;;;;;;4938549;29;20087;-65
2023/09/22 04:23:34;;;;;;;;;;;19.30;99.90;;;;;;4938588;29;19999;-65
2023/09/22 04:26:02;;;;;;;;;;;19.20;99.90;;;;;;4938567;29;20394;-64
2023/09/22 04:28:28;;;;;;;;;;;19.20;99.90;;;;;;4938647;29;20355;-66
2023/09/22 04:30:55;;;;;;;;;;;19.20;99.90;;;;;;4938652;29;19999;-66
2023/09/22 04:33:20;;;;;;;;;;;19.20;99.90;;;;;;4938242;29;19984;-66
2023/09/22 04:35:50;;;;;;;;;;;19.20;99.90;;;;;;4938332;29;19990;-65
2023/09/22 04:38:17;;;;;;;;;;;19.20;99.90;;;;;;4938520;29;20012;-65
2023/09/22 04:40:44;;;;;;;;;;;19.20;99.90;;;;;;4938323;29;19984;-63
2023/09/22 04:43:12;;;;;;;;;;;19.20;99.90;;;;;;4938138;29;20030;-66
2023/09/22 04:45:42;;;;;;;;;;;19.20;99.90;;;;;;4938428;29;19995;-64
2023/09/22 04:48:08;;;;;;;;;;;19.20;99.90;;;;;;4938203;29;19988;-68
2023/09/22 04:50:33;;;;;;;;;;;19.20;99.90;;;;;;4938280;29;20024;-67
2023/09/22 04:53:00;;;;;;;;;;;19.30;99.90;;;;;;4938032;29;19996;-64
2023/09/22 04:55:26;;;;;;;;;;;19.30;99.90;;;;;;4937995;29;20403;-69
2023/09/22 04:57:52;;;;;;;;;;;19.40;99.90;;;;;;4937149;29;20328;-63
2023/09/22 05:00:21;;;;;;;;;;;19.40;99.90;;;;;;4937801;29;19991;-65
2023/09/22 05:02:47;;;;;;;;;;;19.50;99.90;;;;;;4937752;29;20038;-64
2023/09/22 05:05:12;;;;;;;;;;;19.60;99.90;;;;;;4937521;29;20404;-68
2023/09/22 05:07:38;;;;;;;;;;;19.70;99.90;;;;;;4937968;29;19988;-65
2023/09/22 05:10:04;;;;;;;;;;;19.80;99.90;;;;;;4937601;29;19991;-64
2023/09/22 05:12:32;;;;;;;;;;;19.90;99.90;;;;;;4938986;29;20019;-65
2023/09/22 05:15:00;;;;;;;;;;;20.00;99.90;;;;;;4938175;29;20425;-67
2023/09/22 05:17:26;;;;;;;;;;;20.00;99.90;;;;;;4938760;29;20011;-65
2023/09/22 05:19:52;;;;;;;;;;;20.00;99.90;;;;;;4956222;29;20486;-64
2023/09/22 05:22:17;;;;;;;;;;;20.00;99.90;;;;;;4956071;29;19984;-62
2023/09/22 05:24:44;;;;;;;;;;;20.00;99.90;;;;;;4955693;29;19987;-63
2023/09/22 05:27:10;;;;;;;;;;;20.10;99.90;;;;;;4956623;29;20372;-66
2023/09/22 05:29:36;;;;;;;;;;;20.20;99.90;;;;;;4955828;29;19991;-64
2023/09/22 05:32:01;;;;;;;;;;;20.30;99.90;;;;;;4956306;29;20389;-65
2023/09/22 05:34:27;;;;;;;;;;;20.40;99.90;;;;;;4956209;28;19999;-69
2023/09/22 05:36:53;;;;;;;;;;;20.50;99.90;;;;;;4955875;29;20012;-65
2023/09/22 05:39:19;;;;;;;;;;;20.60;99.90;;;;;;4955732;29;19995;-67
2023/09/22 05:41:48;;;;;;;;;;;20.70;99.90;;;;;;4944803;29;19991;-64
2023/09/22 05:44:16;;;;;;;;;;;20.80;99.90;;;;;;4954609;29;19983;-64
2023/09/22 05:46:41;;;;;;;;;;;20.80;99.60;;;;;;4936590;29;19988;-64
2023/09/22 05:49:07;;;;;;;;;;;20.90;99.60;;;;;;4953961;29;20331;-66
2023/09/22 05:51:35;;;;;;;;;;;21.10;99.40;;;;;;4955156;29;19994;-66
2023/09/22 05:54:00;;;;;;;;;;;21.10;98.70;;;;;;4930770;29;20338;-62
2023/09/22 05:56:26;;;;;;;;;;;21.20;98.80;;;;;;4938602;29;20324;-68
2023/09/22 05:58:51;;;;;;;;;;;21.40;99.00;;;;;;4953928;29;19995;-65
2023/09/22 06:01:17;;;;;;;;;;;21.60;98.00;;;;;;4947168;29;20003;-65
2023/09/22 06:03:44;;;;;;;;;;;21.80;97.30;;;;;;4953865;29;20027;-64
2023/09/22 06:06:11;;;;;;;;;;;22.40;96.40;;;;;;4949886;28;19992;-70
2023/09/22 06:08:37;;;;;;;;;;;24.70;90.10;;;;;;4924389;29;19988;-66
2023/09/22 06:11:04;;;;;;;;;;;26.90;73.40;;;;;;4924673;28;20459;-67
2023/09/22 06:13:29;;;;;;;;;;;26.80;66.60;;;;;;4954149;28;20023;-64
2023/09/22 06:15:56;;;;;;;;;;;25.90;68.30;;;;;;4952087;29;19987;-67
2023/09/22 06:18:22;;;;;;;;;;;25.20;71.00;;;;;;4942531;29;20059;-62
2023/09/22 06:21:04;;;;;;;;;;;24.70;73.60;;;;;;4912310;29;22191;-66
2023/09/22 06:23:30;;;;;;;;;;;24.40;76.60;;;;;;4934373;29;19995;-63
2023/09/22 06:26:05;;;;;;;;;;;26.60;71.60;;;;;;4932784;29;20026;-64
2023/09/22 06:28:32;;;;;;;;;;;27.70;64.40;;;;;;4952786;29;20396;-67
2023/09/22 06:31:04;;;;;;;;;;;28.00;62.70;;;;;;4931400;29;19987;-66
2023/09/22 06:33:30;;;;;;;;;;;29.60;60.20;;;;;;4926359;28;20034;-66
2023/09/22 06:35:56;;;;;;;;;;;31.60;55.90;;;;;;4942547;29;20462;-70
2023/09/22 06:38:22;;;;;;;;;;;31.60;52.00;;;;;;4948556;29;20046;-65
2023/09/22 06:40:48;;;;;;;;;;;30.40;52.30;;;;;;4941862;29;20030;-66
2023/09/22 06:43:13;;;;;;;;;;;29.50;54.90;;;;;;4936445;29;20175;-67
2023/09/22 06:45:40;;;;;;;;;;;28.30;56.60;;;;;;4925305;29;19992;-66
2023/09/22 06:48:07;;;;;;;;;;;27.60;58.30;;;;;;4947623;28;20090;-65
2023/09/22 06:50:36;;;;;;;;;;;27.80;60.50;;;;;;4934507;29;19991;-66
2023/09/22 06:53:02;;;;;;;;;;;29.70;58.80;;;;;;4931961;29;20454;-67
2023/09/22 06:55:30;;;;;;;;;;;32.20;53.30;;;;;;4943135;29;19988;-68
2023/09/22 06:57:57;;;;;;;;;;;33.80;49.90;;;;;;4952192;29;20004;-61
2023/09/22 07:00:23;;;;;;;;;;;35.40;46.90;;;;;;4954100;29;20019;-63
2023/09/22 07:02:51;;;;;;;;;;;36.50;43.90;;;;;;4954827;29;20042;-62
2023/09/22 07:05:19;;;;;;;;;;;37.30;41.80;;;;;;4935553;29;20006;-65
2023/09/22 07:07:45;;;;;;;;;;;38.20;40.90;;;;;;4940714;29;20450;-68
2023/09/22 07:10:11;;;;;;;;;;;38.40;38.80;;;;;;4952417;29;19990;-66
2023/09/22 07:12:44;;;;;;;;;;;38.80;39.30;;;;;;4928468;29;20478;-65
2023/09/22 07:15:13;;;;;;;;;;;39.20;38.70;;;;;;4933565;29;19992;-72
2023/09/22 07:17:40;;;;;;;;;;;39.70;37.00;;;;;;4922623;29;20015;-65
2023/09/22 07:20:09;;;;;;;;;;;40.10;36.00;;;;;;4933050;29;20101;-66
2023/09/22 07:22:34;;;;;;;;;;;40.00;34.80;;;;;;4937012;29;20010;-66
2023/09/22 07:25:00;;;;;;;;;;;40.10;34.40;;;;;;4934866;29;20447;-68
2023/09/22 07:27:26;;;;;;;;;;;40.30;33.50;;;;;;4937022;29;20443;-65
2023/09/22 07:29:52;;;;;;;;;;;40.60;34.40;;;;;;4931657;29;19996;-64
2023/09/22 07:32:18;;;;;;;;;;;41.10;32.80;;;;;;4934924;29;20386;-63
2023/09/22 07:34:45;;;;;;;;;;;41.70;32.70;;;;;;4917493;29;20103;-62
2023/09/22 07:37:11;;;;;;;;;;;42.10;33.00;;;;;;4933620;29;20008;-69
2023/09/22 07:39:37;;;;;;;;;;;42.70;32.60;;;;;;4934140;29;19994;-67
2023/09/22 07:42:03;;;;;;;;;;;43.00;31.00;;;;;;4927547;29;19992;-67
2023/09/22 07:44:29;;;;;;;;;;;43.20;30.50;;;;;;4929251;29;19992;-69
2023/09/22 07:46:58;;;;;;;;;;;43.30;30.20;;;;;;4932195;29;20401;-66
2023/09/22 07:49:23;;;;;;;;;;;43.70;30.00;;;;;;4936253;29;19983;-67
2023/09/22 07:51:49;;;;;;;;;;;44.10;29.80;;;;;;4922884;29;20394;-63
2023/09/22 07:54:14;;;;;;;;;;;44.40;29.80;;;;;;4932092;29;20003;-66
2023/09/22 07:56:40;;;;;;;;;;;44.50;29.20;;;;;;4925597;29;20004;-69
2023/09/22 07:59:05;;;;;;;;;;;44.50;29.50;;;;;;4929917;29;20035;-69
2023/09/22 08:01:31;;;;;;;;;;;44.70;29.70;;;;;;4935674;29;19987;-67
2023/09/22 08:03:59;;;;;;;;;;;44.80;29.20;;;;;;4935438;29;20046;-73
2023/09/22 08:06:27;;;;;;;;;;;45.20;29.90;;;;;;4936917;29;19999;-70
2023/09/22 08:08:53;;;;;;;;;;;45.40;28.20;;;;;;4936782;29;20370;-68
2023/09/22 08:11:18;;;;;;;;;;;45.60;29.20;;;;;;4934489;29;20031;-68
2023/09/22 08:13:45;;;;;;;;;;;45.70;28.90;;;;;;4953023;29;20514;-66
2023/09/22 08:16:16;;;;;;;;;;;45.50;28.20;;;;;;4953708;29;20027;-67
2023/09/22 08:18:41;;;;;;;;;;;45.40;28.10;;;;;;4928859;29;20450;-64
2023/09/22 08:21:07;;;;;;;;;;;45.50;28.60;;;;;;4953666;29;19988;-67
2023/09/22 08:23:33;;;;;;;;;;;45.40;28.20;;;;;;4940555;29;20442;-67
2023/09/22 08:26:05;;;;;;;;;;;45.30;28.20;;;;;;4945605;29;20002;-68
2023/09/22 08:28:34;;;;;;;;;;;44.90;28.20;;;;;;4946467;29;20066;-66
2023/09/22 08:31:00;;;;;;;;;;;44.80;27.90;;;;;;4951520;28;20509;-66
2023/09/22 08:33:25;;;;;;;;;;;44.80;28.50;;;;;;4946395;28;20131;-68
2023/09/22 08:35:51;;;;;;;;;;;44.70;28.20;;;;;;4922931;29;19988;-64
2023/09/22 08:38:17;;;;;;;;;;;44.60;28.10;;;;;;4948827;28;20679;-66
2023/09/22 08:40:46;;;;;;;;;;;44.40;28.50;;;;;;4946417;29;19988;-64
2023/09/22 08:43:12;;;;;;;;;;;44.10;28.30;;;;;;4952350;29;20438;-63
2023/09/22 08:45:38;;;;;;;;;;;43.80;28.70;;;;;;4955266;29;19984;-67
2023/09/22 08:48:04;;;;;;;;;;;43.60;28.80;;;;;;4953432;29;19995;-65
2023/09/22 08:50:30;;;;;;;;;;;43.10;28.50;;;;;;4944978;29;20358;-65
2023/09/22 08:52:57;;;;;;;;;;;42.00;29.10;;;;;;4933954;29;20075;-65
2023/09/22 08:55:23;;;;;;;;;;;41.60;30.40;;;;;;4934429;29;19983;-63
2023/09/22 08:57:49;;;;;;;;;;;41.60;30.60;;;;;;4935822;29;20382;-71
2023/09/22 09:00:19;;;;;;;;;;;41.50;29.70;;;;;;4955419;29;20064;-64
2023/09/22 09:02:46;;;;;;;;;;;40.90;29.20;;;;;;4953704;29;19992;-69
2023/09/22 09:05:21;;;;;;;;;;;40.30;30.40;;;;;;4945869;29;19992;-66
2023/09/22 09:07:47;;;;;;;;;;;40.20;30.90;;;;;;4922615;29;20446;-65
2023/09/22 09:10:30;;;;;;;;;;;40.20;31.90;;;;;;4954180;29;20358;-66
2023/09/22 09:12:56;;;;;;;;;;;40.20;30.60;;;;;;4952427;29;20026;-66
2023/09/22 09:15:25;;;;;;;;;;;40.10;31.10;;;;;;4946845;29;20509;-65
2023/09/22 09:18:07;;;;;;;;;;;39.90;30.80;;;;;;4949659;29;20035;-67
2023/09/22 09:20:33;;;;;;;;;;;39.90;31.30;;;;;;4950681;29;20014;-67
2023/09/22 09:23:00;;;;;;;;;;;39.90;31.90;;;;;;4946277;29;20019;-61
2023/09/22 09:25:29;;;;;;;;;;;40.10;31.10;;;;;;4924987;29;19995;-65
2023/09/22 09:28:03;;;;;;;;;;;40.20;31.00;;;;;;4950239;29;19991;-63
2023/09/22 09:30:31;;;;;;;;;;;40.50;29.90;;;;;;4955145;29;19983;-64
2023/09/22 09:33:10;;;;;;;;;;;40.50;30.70;;;;;;4951793;29;20022;-70
2023/09/22 09:35:39;;;;;;;;;;;40.20;30.40;;;;;;4955337;28;20535;-67
2023/09/22 09:38:05;;;;;;;;;;;40.30;30.60;;;;;;4954782;28;20003;-69
2023/09/22 09:40:37;;;;;;;;;;;40.30;30.30;;;;;;4953082;29;20082;-64
2023/09/22 09:43:06;;;;;;;;;;;40.50;32.00;;;;;;4954872;28;20069;-63
2023/09/22 09:45:34;;;;;;;;;;;40.40;30.00;;;;;;4953166;29;19988;-64
2023/09/22 09:48:00;;;;;;;;;;;39.90;30.10;;;;;;4947776;29;19995;-63
2023/09/22 09:50:27;;;;;;;;;;;39.80;31.20;;;;;;4946659;29;19988;-62
2023/09/22 09:52:55;;;;;;;;;;;40.00;30.20;;;;;;4949280;29;19991;-71
2023/09/22 09:55:21;;;;;;;;;;;40.30;30.60;;;;;;4951995;29;20078;-69
2023/09/22 09:57:52;;;;;;;;;;;40.10;29.90;;;;;;4940175;29;20011;-68
2023/09/22 10:00:20;;;;;;;;;;;39.80;30.40;;;;;;4950735;29;20034;-69
2023/09/22 10:02:49;;;;;;;;;;;39.50;31.30;;;;;;4951641;29;20430;-65
2023/09/22 10:05:15;;;;;;;;;;;39.60;30.10;;;;;;4953832;29;19987;-66
2023/09/22 10:07:44;;;;;;;;;;;39.60;30.90;;;;;;4945072;29;19987;-67
2023/09/22 10:10:11;;;;;;;;;;;39.80;31.00;;;;;;4946032;29;20006;-73
2023/09/22 10:12:37;;;;;;;;;;;39.90;30.00;;;;;;4945507;29;20015;-71
2023/09/22 10:15:04;;;;;;;;;;;39.80;30.20;;;;;;4955058;29;19998;-66
2023/09/22 10:17:31;;;;;;;;;;;39.70;30.10;;;;;;4929716;29;20008;-71
2023/09/22 10:20:01;;;;;;;;;;;39.50;31.00;;;;;;4944243;29;20050;-67
2023/09/22 10:22:29;;;;;;;;;;;39.30;31.70;;;;;;4952930;29;19988;-65
2023/09/22 10:25:13;;;;;;;;;;;38.80;31.00;;;;;;4950187;29;20034;-71
2023/09/22 10:27:55;;;;;;;;;;;38.30;32.80;;;;;;4940961;29;20336;-68
2023/09/22 10:30:21;;;;;;;;;;;38.20;31.70;;;;;;4945701;29;19991;-71
2023/09/22 10:32:47;;;;;;;;;;;38.50;32.40;;;;;;4953233;29;20062;-66
2023/09/22 10:35:15;;;;;;;;;;;38.90;32.20;;;;;;4934843;29;20042;-70
2023/09/22 10:38:04;;;;;;;;;;;39.30;32.60;;;;;;4953733;29;20007;-68
2023/09/22 10:40:30;;;;;;;;;;;39.60;32.10;;;;;;4952669;29;20505;-63
2023/09/22 10:42:56;;;;;;;;;;;39.40;31.30;;;;;;4953348;29;19991;-66
2023/09/22 10:45:25;;;;;;;;;;;39.40;31.40;;;;;;4953268;29;20030;-66
2023/09/22 10:47:55;;;;;;;;;;;39.40;31.90;;;;;;4952426;29;20046;-74
2023/09/22 10:50:30;;;;;;;;;;;39.20;31.00;;;;;;4943175;29;20109;-67
2023/09/22 10:52:57;;;;;;;;;;;39.00;31.40;;;;;;4936688;29;19991;-69
2023/09/22 10:55:26;;;;;;;;;;;39.00;30.90;;;;;;4936353;29;19984;-64
2023/09/22 10:57:53;;;;;;;;;;;39.00;31.40;;;;;;4939529;29;20008;-67
2023/09/22 11:00:18;;;;;;;;;;;39.10;31.60;;;;;;4924858;29;19996;-71
2023/09/22 11:02:44;;;;;;;;;;;39.20;31.10;;;;;;4939507;29;19984;-63
2023/09/22 11:05:14;;;;;;;;;;;39.20;31.80;;;;;;4939420;29;19983;-68
